Aeroporto :
LOGIN :

Iscrizione | Disclaimer

   EN    FR    IT 

 










Sommario :    VFR   VFR Marginale   IFR   IFR Intensivo   IFR Molto Intensivo
Visibilità : 
Base nubi : 
>= 8 km
>= 3000ft
5 / 8 km
1000 / 3000 ft
1500m / 5 km
500 / 1000 ft
800 / 1500m
200 / 500 ft
< 800m
< 200 ft
Simboli :   Temporali  Nebbia  Neve Forte  Precipitazioni Forti  Vento > 20 kt
SIGMETs :   Varie  Temporali  Ghiacco  Turbolenza  Onda orograficha  Ceneri Vulcaniche







- Altitudine del aeroporto : 3 ft
- Codice IATA : LWR


EHLW - Leuuwarden Air Base

ULTIMO METAR :
  • 191400Z AUTO 04013KT 020V090 9999 NCD 20/12 Q1030 BLU

METARs OBSOLETI :
  • 191325Z AUTO 05012KT 010V090 9999 NCD 21/11 Q1030 BLU 07010KT CAVOK
  • 191257Z AUTO 07013KT 360V140 9999 NCD 21/07 Q1030 BLU 07010KT CAVOK
  • 191255Z AUTO 07012KT 360V150 9999 NCD 21/08 Q1030 BLU 07010KT CAVOK
  • 191225Z AUTO 07011KT 020V140 9999 NCD 21/09 Q1030 BLU 07010KT CAVOK
  • 191155Z AUTO 08011KT 010V180 9999 NCD 20/09 Q1030 BLU 07010KT CAVOK
  • 191125Z AUTO 08011KT 010V130 9999 NCD 20/09 Q1030 BLU 07010KT CAVOK

TAF TAF EHLW
Valido dal 19 a 13 ore il 20 a 01 ore UTC


191259Z 1913/2001 08012KT CAVOK
BECMG 1917/1920 05007KT
Nessun NOTAM noto per questo aeroporto.



MetMap, La meteo Aeronautica in un colpo d'occhio ! - Copyright ORBIFLY Dicembre 2007 - Disclaimer

ORBIFLY MET'MAP TEAM :

Programmazione e sviluppo : Alexandra Zaïnal
Concezione e sviluppo : Baudouin d'Aumeries
Co-Programmazione e sviluppo : Marc-Olivier Méhu
Supporto tecnico e logistico : Manuel Goepfert
Aiuto per la traduzione : Arnaldo La Scala

Contatto : metmap@orbifly.com




FONTI E CREDITI :

   NOAA